Terminal Aerodrome Forecast
Issued by NWS

Home | Current Version | Previous Version | Text Only | Print | Product List | Glossary On
Versions: 1 2 3 4 5 6 7 8 9 10 11 12 13 14 15 16 17 18 19 20 21 22 23 24
000
FTUS43 KDLH 301144
TAFBRD
TAF
KBRD 301144Z 3012/3112 20003KT P6SM VCSH SCT070 BKN100
     FM301700 09008KT P6SM VCTS SCT035CB BKN070
     FM302300 14006KT P6SM VCSH BKN060
     FM310800 11006KT P6SM VCTS SCT015CB BKN035=

USA.gov is the U.S. government's official web portal to all federal, state and local government web resources and services.